Vn Rebel _ — ILBR — position and weather

sailwx.info

Track history (hours):
 
Tides and Currents Weather Stations Pressure Air Temp Water Temp Dewpoint Dewpoint Depression Visibility Wind Speed Wind Dir Waves Ship Positions

Vn Rebel _

Last reported at 2014-Aug-11 07:33 UTC. Time now 2014-Aug-23 09:34 UTC.
Position N 43°07' E 005°55'.
Warning: this ship's position is 12 days out of date.

Length 45 m; draft 2.4 m.

MMSI: 247010300.

Date/timePositionNaut miles runAvg speedWind from/ knotsBaromVisibWave heightAir tempDewpointWater temp
2014-Aug-11 07:33N 43°07' E 005°55'0 0.0
2014-Aug-11 06:33N 43°07' E 005°55'0 0.0
2014-Aug-11 05:33N 43°07' E 005°55'0 0.0
2014-Aug-11 04:33N 43°07' E 005°55'0 0.0
2014-Aug-11 03:33N 43°07' E 005°55'0 0.0
2014-Aug-11 02:33N 43°07' E 005°55'0 0.0
2014-Aug-11 01:33N 43°07' E 005°55'0 0.0
2014-Aug-11 00:33N 43°07' E 005°55'0 0.0
2014-Aug-10 23:33N 43°07' E 005°55'0 0.0
2014-Aug-10 22:33N 43°07' E 005°55'0 0.0
2014-Aug-10 21:33N 43°07' E 005°55'0 0.0
2014-Aug-10 20:33N 43°07' E 005°55'0 0.0
2014-Aug-10 19:33N 43°07' E 005°55'0 0.0
2014-Aug-10 18:33N 43°07' E 005°55'0 0.0
2014-Aug-10 17:33N 43°07' E 005°55'0 0.0
2014-Aug-10 16:33N 43°07' E 005°55'0 0.0
2014-Aug-09 20:34N 43°07' E 005°55'6 6.1
2014-Aug-09 19:34N 43°01' E 005°58'9 9.5
2014-Aug-09 18:34N 42°52' E 005°57'9 9.5
2014-Aug-09 17:34N 42°42' E 005°57'9 9.2
2014-Aug-09 16:33N 42°33' E 005°57'6 6.1
2014-Aug-09 15:33N 42°27' E 005°57'3 2.6
2014-Aug-09 14:33N 42°24' E 005°57'5 4.9
2014-Aug-09 13:33N 42°29' E 005°59'2 1.9
2014-Aug-09 12:33N 42°31' E 006°00'0 0.3
2014-Aug-09 11:33N 42°31' E 006°00'6 6.4
2014-Aug-09 10:33N 42°37' E 005°59'9 8.7
2014-Aug-09 09:34N 42°46' E 005°59'8 8.3
2014-Aug-09 08:33N 42°54' E 005°58'9 8.5
2014-Aug-09 07:34N 43°03' E 005°58'5 4.7
2014-Aug-09 06:34N 43°07' E 005°55'  
Track history (hours):
 
Tides and Currents Weather Stations Pressure Air Temp Water Temp Dewpoint Dewpoint Depression Visibility Wind Speed Wind Dir Waves Ship Positions

Vn Rebel _

Last reported at 2014-Aug-11 07:33 UTC. Time now 2014-Aug-23 09:34 UTC.
Position N 43°07' E 005°55'.
Warning: this ship's position is 12 days out of date.

Length 45 m; draft 2.4 m.

MMSI: 247010300.

Date/timePositionNaut miles runAvg speedWind from/ knotsBaromVisibWave heightAir tempDewpointWater temp
2014-Aug-11 07:33N 43°07' E 005°55'0 0.0
2014-Aug-11 06:33N 43°07' E 005°55'0 0.0
2014-Aug-11 05:33N 43°07' E 005°55'0 0.0
2014-Aug-11 04:33N 43°07' E 005°55'0 0.0
2014-Aug-11 03:33N 43°07' E 005°55'0 0.0
2014-Aug-11 02:33N 43°07' E 005°55'0 0.0
2014-Aug-11 01:33N 43°07' E 005°55'0 0.0
2014-Aug-11 00:33N 43°07' E 005°55'0 0.0
2014-Aug-10 23:33N 43°07' E 005°55'0 0.0
2014-Aug-10 22:33N 43°07' E 005°55'0 0.0
2014-Aug-10 21:33N 43°07' E 005°55'0 0.0
2014-Aug-10 20:33N 43°07' E 005°55'0 0.0
2014-Aug-10 19:33N 43°07' E 005°55'0 0.0
2014-Aug-10 18:33N 43°07' E 005°55'0 0.0
2014-Aug-10 17:33N 43°07' E 005°55'0 0.0
2014-Aug-10 16:33N 43°07' E 005°55'0 0.0
2014-Aug-09 20:34N 43°07' E 005°55'6 6.1
2014-Aug-09 19:34N 43°01' E 005°58'9 9.5
2014-Aug-09 18:34N 42°52' E 005°57'9 9.5
2014-Aug-09 17:34N 42°42' E 005°57'9 9.2
2014-Aug-09 16:33N 42°33' E 005°57'6 6.1
2014-Aug-09 15:33N 42°27' E 005°57'3 2.6
2014-Aug-09 14:33N 42°24' E 005°57'5 4.9
2014-Aug-09 13:33N 42°29' E 005°59'2 1.9
2014-Aug-09 12:33N 42°31' E 006°00'0 0.3
2014-Aug-09 11:33N 42°31' E 006°00'6 6.4
2014-Aug-09 10:33N 42°37' E 005°59'9 8.7
2014-Aug-09 09:34N 42°46' E 005°59'8 8.3
2014-Aug-09 08:33N 42°54' E 005°58'9 8.5
2014-Aug-09 07:34N 43°03' E 005°58'5 4.7
2014-Aug-09 06:34N 43°07' E 005°55'  

Dump ship's entire track history